sensor_id;sensor_type;location;lat;lon;timestamp;P1;durP1;ratioP1;P2;durP2;ratioP2
6043;SDS011;3050;42.660;23.276;2023-04-25T00:00:34;0.80;;;0.80;;
6043;SDS011;3050;42.660;23.276;2023-04-25T01:41:50;2.23;;;2.07;;
6043;SDS011;3050;42.660;23.276;2023-04-25T01:45:54;0.83;;;0.83;;
6043;SDS011;3050;42.660;23.276;2023-04-25T01:47:45;1.60;;;1.50;;
6043;SDS011;3050;42.660;23.276;2023-04-25T01:50:31;2.60;;;1.87;;
6043;SDS011;3050;42.660;23.276;2023-04-25T01:53:17;1.40;;;1.30;;
6043;SDS011;3050;42.660;23.276;2023-04-25T01:56:04;3.20;;;1.70;;
6043;SDS011;3050;42.660;23.276;2023-04-25T02:23:20;3.60;;;2.03;;
6043;SDS011;3050;42.660;23.276;2023-04-25T02:26:06;1.47;;;1.37;;
6043;SDS011;3050;42.660;23.276;2023-04-25T02:29:03;1.60;;;1.10;;
6043;SDS011;3050;42.660;23.276;2023-04-25T02:31:58;1.70;;;1.63;;
6043;SDS011;3050;42.660;23.276;2023-04-25T02:34:53;2.60;;;1.80;;
6043;SDS011;3050;42.660;23.276;2023-04-25T02:37:40;2.03;;;1.83;;
6043;SDS011;3050;42.660;23.276;2023-04-25T03:16:15;4.00;;;2.00;;
6043;SDS011;3050;42.660;23.276;2023-04-25T03:18:56;1.90;;;1.80;;
6043;SDS011;3050;42.660;23.276;2023-04-25T03:21:57;2.37;;;2.00;;
6043;SDS011;3050;42.660;23.276;2023-04-25T03:25:47;2.90;;;1.30;;
6043;SDS011;3050;42.660;23.276;2023-04-25T03:27:56;2.23;;;2.13;;
6043;SDS011;3050;42.660;23.276;2023-04-25T03:31:04;2.53;;;1.93;;
6043;SDS011;3050;42.660;23.276;2023-04-25T03:37:10;5.03;;;1.60;;
6043;SDS011;3050;42.660;23.276;2023-04-25T03:40:16;5.43;;;1.80;;
6043;SDS011;3050;42.660;23.276;2023-04-25T03:43:00;2.77;;;2.07;;
6043;SDS011;3050;42.660;23.276;2023-04-25T09:02:03;0.75;;;0.60;;
6043;SDS011;3050;42.660;23.276;2023-04-25T09:04:40;1.00;;;1.00;;
6043;SDS011;3050;42.660;23.276;2023-04-25T09:07:16;0.68;;;0.68;;
6043;SDS011;3050;42.660;23.276;2023-04-25T09:09:49;0.68;;;0.68;;
6043;SDS011;3050;42.660;23.276;2023-04-25T09:12:34;0.55;;;0.55;;
6043;SDS011;3050;42.660;23.276;2023-04-25T09:15:31;1.85;;;0.60;;
6043;SDS011;3050;42.660;23.276;2023-04-25T09:18:28;0.40;;;0.40;;
6043;SDS011;3050;42.660;23.276;2023-04-25T09:21:11;0.57;;;0.40;;
6043;SDS011;3050;42.660;23.276;2023-04-25T09:23:50;0.52;;;0.52;;
6043;SDS011;3050;42.660;23.276;2023-04-25T09:26:32;0.80;;;0.80;;
6043;SDS011;3050;42.660;23.276;2023-04-25T09:29:13;0.77;;;0.77;;
6043;SDS011;3050;42.660;23.276;2023-04-25T09:41:06;0.60;;;0.60;;
6043;SDS011;3050;42.660;23.276;2023-04-25T09:47:05;0.88;;;0.52;;
6043;SDS011;3050;42.660;23.276;2023-04-25T09:49:46;0.57;;;0.57;;
6043;SDS011;3050;42.660;23.276;2023-04-25T09:52:29;0.43;;;0.43;;
6043;SDS011;3050;42.660;23.276;2023-04-25T09:55:22;0.20;;;0.20;;
6043;SDS011;3050;42.660;23.276;2023-04-25T09:58:23;0.40;;;0.40;;
6043;SDS011;3050;42.660;23.276;2023-04-25T10:01:11;0.40;;;0.40;;
6043;SDS011;3050;42.660;23.276;2023-04-25T10:03:50;0.50;;;0.50;;
6043;SDS011;3050;42.660;23.276;2023-04-25T10:06:36;0.57;;;0.57;;
6043;SDS011;3050;42.660;23.276;2023-04-25T10:09:33;0.32;;;0.32;;
6043;SDS011;3050;42.660;23.276;2023-04-25T10:12:08;0.30;;;0.30;;
6043;SDS011;3050;42.660;23.276;2023-04-25T10:39:30;0.75;;;0.43;;
6043;SDS011;3050;42.660;23.276;2023-04-25T10:42:17;0.40;;;0.40;;
6043;SDS011;3050;42.660;23.276;2023-04-25T10:45:04;0.30;;;0.30;;
6043;SDS011;3050;42.660;23.276;2023-04-25T10:47:50;0.30;;;0.30;;
6043;SDS011;3050;42.660;23.276;2023-04-25T10:50:37;0.35;;;0.35;;
6043;SDS011;3050;42.660;23.276;2023-04-25T10:53:25;0.17;;;0.17;;
6043;SDS011;3050;42.660;23.276;2023-04-25T11:17:35;0.45;;;0.45;;
6043;SDS011;3050;42.660;23.276;2023-04-25T11:20:16;0.22;;;0.22;;
6043;SDS011;3050;42.660;23.276;2023-04-25T11:22:57;0.28;;;0.28;;
6043;SDS011;3050;42.660;23.276;2023-04-25T11:25:44;0.20;;;0.20;;
6043;SDS011;3050;42.660;23.276;2023-04-25T11:28:28;0.22;;;0.22;;
6043;SDS011;3050;42.660;23.276;2023-04-25T11:31:06;0.95;;;0.30;;
6043;SDS011;3050;42.660;23.276;2023-04-25T11:33:49;0.30;;;0.30;;
6043;SDS011;3050;42.660;23.276;2023-04-25T11:36:42;0.30;;;0.30;;
6043;SDS011;3050;42.660;23.276;2023-04-25T11:39:24;0.22;;;0.22;;
6043;SDS011;3050;42.660;23.276;2023-04-25T11:42:13;1.85;;;0.38;;
6043;SDS011;3050;42.660;23.276;2023-04-25T11:48:08;0.20;;;0.20;;
6043;SDS011;3050;42.660;23.276;2023-04-25T12:25:13;0.20;;;0.20;;
6043;SDS011;3050;42.660;23.276;2023-04-25T12:28:08;0.30;;;0.30;;
6043;SDS011;3050;42.660;23.276;2023-04-25T12:30:57;0.30;;;0.30;;
6043;SDS011;3050;42.660;23.276;2023-04-25T12:33:42;0.20;;;0.20;;
6043;SDS011;3050;42.660;23.276;2023-04-25T12:39:39;0.20;;;0.20;;
6043;SDS011;3050;42.660;23.276;2023-04-25T12:57:16;0.28;;;0.28;;
6043;SDS011;3050;42.660;23.276;2023-04-25T13:00:13;0.10;;;0.10;;
6043;SDS011;3050;42.660;23.276;2023-04-25T13:06:16;0.60;;;0.60;;
6043;SDS011;3050;42.660;23.276;2023-04-25T13:08:57;1.27;;;0.97;;
6043;SDS011;3050;42.660;23.276;2023-04-25T13:11:27;2.17;;;0.47;;
